Terminal Aerodrome Forecast
Issued by NWS

Home | Current Version | Previous Version | Text Only | Print | Product List | Glossary Off
Versions: 1 2 3 4 5 6 7 8 9 10 11 12 13 14 15 16 17 18 19 20 21 22 23 24 25

000
FTUS43 KBIS 251600 AAB
TAFMOT
TAF AMD
KMOT 251606Z 2516/2612 10013KT P6SM OVC009
     FM251700 12013KT P6SM OVC012
     FM252000 12014KT P6SM BKN025
     FM260000 11011KT P6SM OVC015
     FM260600 13008KT 3SM -RA BR OVC010=

USA.gov is the U.S. government's official web portal to all federal, state and local government web resources and services.